Weather at Hatzor Air Base

Public forecast

Using degrees Celsius for public forecast. Weather courtesy of forecast.io.

Closest aviation weather report (METAR) to Hatzor Air Base

Closest report is Ben Gurion International Airport, 17.0 nm (31.5 km) NNE.

2024/05/25 04:20 (retrieved 30 minutes ago)

LLBG 250420Z 19008KT 9999 FEW026 SCT035 22/16 Q1010 NOSIG

Closest aviation forecast (TAF) to Hatzor Air Base

Forecast is more than 6 hours old.

Closest forecast is Beirut Rafic Hariri International Airport, 129.4 nm (239.7 km) NNE.

2024/05/24 18:01 (retrieved 11 hours ago)

TAF OLBA 241600Z 2418/2524 20018G25KT 7000 DZ BKN026 PROB40 TEMPO 2418/2509 5000 RA BECMG 2509/2512 26020KT BECMG 2518/2521 20016KT 8000 SCT026